Malta Bend, Missouri
Current Conditions -  °F | °C
As of 2:58 PM on Sunday 21 Dec 2014 (Local Time) from KSZL Reporting Station
Broken Clouds Broken Clouds  
Wind Chill: 38°   Ceiling: 2000
Heat Index: 44°   Visibility: 10mi
Dew Point: 40°   Wind: 14mph
Humidity: 86%   Direction: 170°S
Pressure: 29.89"   Gusts: NA
Location:  39.19°N, 93.36°W
Report Text: KSZL 212058Z AUTO 17012KT 10SM BKN020 07/05 A2989 RMK AO2 SLP128 60000 T00690047 57031 $
Loading
Personal Weather Stations






























Interactive Weather Map New forecast layout! Learn more

10-Day Weather Forecast

Advertisements
Track Severe Weather on mobile